Time;durP1;ratioP1;P1;durP2;ratioP2;P2;SDS_P1;SDS_P2;PMS_P1;PMS_P2;Temp;Humidity;BMP_temperature;BMP_pressure;BME280_temperature;BME280_humidity;BME280_pressure;Samples;Min_cycle;Max_cycle;Signal;HPM_P1;HPM_P2
2023/03/20 00:01:48;;;;;;;11.20;8.40;;;;;;;10.99;97.45;100924.66;4970248;28;20214;-83
2023/03/20 00:04:15;;;;;;;7.53;6.70;;;;;;;10.96;97.64;100922.19;4965194;28;20225;-82
2023/03/20 00:06:41;;;;;;;11.87;7.53;;;;;;;10.95;97.67;100925.78;4972933;28;20214;-82
2023/03/20 00:09:08;;;;;;;8.53;7.53;;;;;;;10.92;97.76;100931.34;4972071;28;20224;-82
2023/03/20 00:11:36;;;;;;;10.47;7.93;;;;;;;10.91;97.78;100934.94;4976298;28;20208;-82
2023/03/20 00:14:05;;;;;;;9.20;7.93;;;;;;;10.89;97.95;100936.00;4969028;28;20591;-82
2023/03/20 00:16:35;;;;;;;11.07;8.70;;;;;;;10.87;97.98;100938.75;4973711;28;20215;-82
2023/03/20 00:19:03;;;;;;;11.70;8.90;;;;;;;10.83;98.23;100937.19;4975258;28;20240;-82
2023/03/20 00:21:31;;;;;;;12.23;10.23;;;;;;;10.81;98.54;100931.09;4962618;28;20209;-82
2023/03/20 00:23:57;;;;;;;17.43;12.73;;;;;;;10.80;98.76;100934.72;4972887;28;20201;-82
2023/03/20 00:26:27;;;;;;;22.77;15.87;;;;;;;10.75;98.94;100937.66;4968074;28;20204;-82
2023/03/20 00:28:53;;;;;;;31.93;19.80;;;;;;;10.72;98.71;100939.66;4962717;28;20315;-82
2023/03/20 00:31:25;;;;;;;28.40;21.00;;;;;;;10.64;99.06;100948.09;4974234;28;20220;-82
2023/03/20 00:33:54;;;;;;;30.60;20.43;;;;;;;10.63;98.81;100945.50;4965805;28;20295;-82
2023/03/20 00:36:21;;;;;;;30.67;20.57;;;;;;;10.58;98.75;100948.44;4970603;28;20588;-82
2023/03/20 00:38:48;;;;;;;32.63;21.53;;;;;;;10.55;98.96;100953.13;4969149;28;20632;-82
2023/03/20 00:41:23;;;;;;;31.83;21.93;;;;;;;10.47;98.99;100945.56;4969932;28;20208;-82
2023/03/20 00:43:53;;;;;;;31.27;21.00;;;;;;;10.42;99.46;100956.47;4973269;28;20204;-82
2023/03/20 00:46:20;;;;;;;38.50;21.83;;;;;;;10.36;99.98;100954.19;4971029;28;20214;-82
2023/03/20 00:48:47;;;;;;;33.70;22.50;;;;;;;10.33;99.69;100949.03;4965868;28;20228;-82
2023/03/20 00:51:15;;;;;;;36.37;22.27;;;;;;;10.30;100.00;100951.00;4959887;28;20256;-83
2023/03/20 00:53:41;;;;;;;35.40;22.77;;;;;;;10.25;100.00;100951.25;4969498;28;20225;-82
2023/03/20 00:56:28;;;;;;;39.43;23.70;;;;;;;10.21;100.00;100954.19;4967332;28;20215;-82
2023/03/20 00:58:55;;;;;;;44.63;22.27;;;;;;;10.15;100.00;100950.03;4969207;28;20232;-82
2023/03/20 01:01:21;;;;;;;40.50;22.70;;;;;;;10.11;100.00;100959.16;4972363;28;20208;-82
2023/03/20 01:03:48;;;;;;;42.93;23.57;;;;;;;10.06;100.00;100970.03;4969045;28;20200;-82
2023/03/20 01:06:17;;;;;;;45.33;24.20;;;;;;;10.03;100.00;100964.06;4972312;28;20213;-82
2023/03/20 01:08:45;;;;;;;42.03;24.27;;;;;;;10.00;100.00;100967.75;4962671;28;20635;-82
2023/03/20 01:11:13;;;;;;;46.53;25.37;;;;;;;9.98;100.00;100963.44;4973075;28;20219;-82
2023/03/20 01:13:40;;;;;;;46.43;23.23;;;;;;;9.95;100.00;100955.63;4967354;28;20235;-82
2023/03/20 01:16:19;;;;;;;42.47;23.00;;;;;;;9.94;100.00;100961.88;4972727;28;20663;-82
2023/03/20 01:18:45;;;;;;;48.23;23.83;;;;;;;9.90;100.00;100966.50;4972446;28;20255;-82
2023/03/20 01:21:12;;;;;;;45.67;24.03;;;;;;;9.89;100.00;100966.59;4970300;28;20208;-82
2023/03/20 01:23:40;;;;;;;47.90;24.77;;;;;;;9.86;100.00;100967.63;4964952;28;20212;-82
2023/03/20 01:26:21;;;;;;;46.33;24.30;;;;;;;9.85;100.00;100963.28;4975718;28;20211;-82
2023/03/20 01:28:47;;;;;;;48.63;24.10;;;;;;;9.83;100.00;100962.50;4973729;28;20235;-82
2023/03/20 01:31:16;;;;;;;43.97;24.60;;;;;;;9.84;100.00;100964.22;4975360;28;20799;-82
2023/03/20 01:33:43;;;;;;;45.33;24.63;;;;;;;9.86;100.00;100966.75;4967403;28;20224;-82
2023/03/20 01:36:11;;;;;;;43.57;23.30;;;;;;;9.84;100.00;100958.91;4976091;28;20247;-82
2023/03/20 01:38:40;;;;;;;45.40;23.70;;;;;;;9.86;100.00;100966.75;4972016;28;20231;-82
2023/03/20 01:41:10;;;;;;;44.67;23.63;;;;;;;9.86;100.00;100967.63;4972622;28;20602;-82
2023/03/20 01:43:37;;;;;;;44.40;24.30;;;;;;;9.87;100.00;100972.00;4975255;28;20195;-81
2023/03/20 01:46:17;;;;;;;46.97;23.53;;;;;;;9.86;100.00;100978.25;4974058;28;20592;-82
2023/03/20 01:49:09;;;;;;;47.77;23.53;;;;;;;9.86;100.00;100974.75;4975502;28;20232;-82
2023/03/20 01:51:36;;;;;;;45.00;24.83;;;;;;;9.88;100.00;100986.16;4977565;28;20324;-82
2023/03/20 01:54:07;;;;;;;46.33;23.97;;;;;;;9.89;100.00;100979.91;4978499;28;20306;-82
2023/03/20 01:56:39;;;;;;;47.77;23.87;;;;;;;9.88;100.00;100981.69;4976120;28;20232;-82
2023/03/20 01:59:10;;;;;;;50.70;25.83;;;;;;;9.87;100.00;100982.63;4979887;28;20234;-82
2023/03/20 02:01:37;;;;;;;50.67;26.23;;;;;;;9.86;100.00;100983.59;4968474;28;20200;-82
2023/03/20 02:04:04;;;;;;;51.17;23.80;;;;;;;9.86;100.00;100980.06;4975863;28;20573;-82
2023/03/20 02:06:31;;;;;;;51.60;25.63;;;;;;;9.84;100.00;100977.53;4976109;28;20603;-82
2023/03/20 02:08:58;;;;;;;54.30;26.03;;;;;;;9.85;100.00;100978.38;4978069;28;20234;-82
2023/03/20 02:11:26;;;;;;;51.20;25.07;;;;;;;9.84;100.00;100979.31;4977819;28;20209;-82
2023/03/20 02:13:56;;;;;;;52.00;25.03;;;;;;;9.83;100.00;100988.25;4970262;28;20233;-82
2023/03/20 02:16:23;;;;;;;54.10;24.67;;;;;;;9.82;100.00;100989.19;4971582;28;20212;-82
2023/03/20 02:18:52;;;;;;;57.10;25.10;;;;;;;9.81;100.00;100987.47;4979488;28;20228;-82
2023/03/20 02:21:51;;;;;;;53.77;25.90;;;;;;;9.79;100.00;100994.66;4977655;28;20240;-82
2023/03/20 02:24:54;;;;;;;55.07;25.30;;;;;;;9.78;100.00;100991.16;4967985;28;20215;-82
2023/03/20 02:27:29;;;;;;;49.97;24.23;;;;;;;9.77;100.00;100993.88;4978996;28;20199;-82
2023/03/20 02:30:24;;;;;;;49.60;24.47;;;;;;;9.78;100.00;101003.59;4975208;28;20236;-81
2023/03/20 02:33:18;;;;;;;51.10;24.37;;;;;;;9.76;100.00;101011.66;4971295;28;20204;-82
2023/03/20 02:36:23;;;;;;;51.70;24.40;;;;;;;9.74;100.00;101011.72;4965928;28;20212;-81
2023/03/20 02:39:16;;;;;;;57.20;26.47;;;;;;;9.70;100.00;101017.28;4964159;28;20247;-82
2023/03/20 02:41:49;;;;;;;55.40;24.10;;;;;;;9.70;100.00;101023.47;4976857;28;20374;-82
2023/03/20 02:44:22;;;;;;;56.83;25.17;;;;;;;9.68;100.00;101025.34;4971078;28;20199;-82
2023/03/20 02:46:57;;;;;;;55.73;25.57;;;;;;;9.66;100.00;101021.94;4975135;28;20209;-82
2023/03/20 02:49:38;;;;;;;51.60;24.83;;;;;;;9.64;100.00;101018.50;4970671;28;20259;-82
2023/03/20 02:52:16;;;;;;;48.43;22.90;;;;;;;9.64;100.00;101023.81;4971393;28;20212;-82
2023/03/20 02:54:54;;;;;;;53.90;23.90;;;;;;;9.63;100.00;101019.44;4979604;28;20738;-82
2023/03/20 02:57:26;;;;;;;49.03;22.57;;;;;;;9.62;100.00;101019.50;4973393;28;20210;-82
2023/03/20 02:59:58;;;;;;;46.43;21.33;;;;;;;9.60;100.00;101013.41;4974658;28;20235;-82
2023/03/20 03:02:34;;;;;;;37.40;18.90;;;;;;;9.56;100.00;101020.69;4968595;28;20681;-82
2023/03/20 03:05:04;;;;;;;34.93;17.40;;;;;;;9.54;100.00;101022.56;4967087;28;20693;-82
2023/03/20 03:07:33;;;;;;;31.80;17.07;;;;;;;9.50;100.00;101010.38;4965648;28;20204;-82
2023/03/20 03:10:05;;;;;;;32.13;16.10;;;;;;;9.48;100.00;101006.97;4968474;28;20309;-82
2023/03/20 03:12:37;;;;;;;34.37;16.80;;;;;;;9.45;100.00;101009.78;4969019;28;20674;-82
2023/03/20 03:15:13;;;;;;;30.27;15.83;;;;;;;9.43;100.00;101003.69;4966605;28;20225;-82
2023/03/20 03:17:44;;;;;;;35.93;17.13;;;;;;;9.42;100.00;100999.31;4977602;28;20203;-82
2023/03/20 03:20:22;;;;;;;31.80;14.50;;;;;;;9.42;100.00;101003.75;4973147;28;20714;-82
2023/03/20 03:22:49;;;;;;;31.20;15.77;;;;;;;9.42;100.00;101006.41;4977952;28;20215;-82
2023/03/20 03:25:18;;;;;;;33.77;16.23;;;;;;;9.43;100.00;101011.66;4965620;28;20650;-82
2023/03/20 03:27:47;;;;;;;37.30;17.17;;;;;;;9.42;100.00;101019.72;4976527;28;20206;-82
2023/03/20 03:30:18;;;;;;;32.70;16.30;;;;;;;9.40;100.00;101010.00;4968377;28;20229;-82
2023/03/20 03:32:47;;;;;;;36.17;16.20;;;;;;;9.40;100.00;101011.81;4973356;28;20204;-82
2023/03/20 03:35:18;;;;;;;36.90;15.77;;;;;;;9.37;99.88;101018.13;4973432;28;20589;-82
2023/03/20 03:37:54;;;;;;;33.97;16.30;;;;;;;9.35;99.54;101020.03;4974300;28;20204;-82
2023/03/20 03:40:32;;;;;;;33.47;16.50;;;;;;;9.31;98.97;101002.53;4963909;28;20220;-82
2023/03/20 03:43:04;;;;;;;33.93;16.53;;;;;;;9.30;98.62;101011.44;4971080;28;20577;-82
2023/03/20 03:45:35;;;;;;;29.70;16.27;;;;;;;9.26;98.01;101007.22;4968552;28;20215;-82
2023/03/20 03:48:07;;;;;;;34.57;16.03;;;;;;;9.24;97.22;101006.44;4963526;28;20212;-82
2023/03/20 03:50:46;;;;;;;29.60;15.80;;;;;;;9.22;97.26;100999.47;4957371;28;20212;-82
2023/03/20 03:53:17;;;;;;;38.43;16.30;;;;;;;9.18;96.81;101008.53;4968098;28;20220;-82
2023/03/20 03:55:49;;;;;;;32.93;17.13;;;;;;;9.16;96.88;101007.75;4968741;28;20225;-82
2023/03/20 03:58:21;;;;;;;31.47;15.10;;;;;;;9.13;96.67;101006.16;4972517;28;20218;-82
2023/03/20 04:00:50;;;;;;;34.10;16.57;;;;;;;9.13;96.27;101000.84;4966856;28;20242;-82
2023/03/20 04:03:21;;;;;;;33.03;16.47;;;;;;;9.09;95.94;100991.28;4957613;28;20679;-82
2023/03/20 04:05:49;;;;;;;30.27;15.97;;;;;;;9.08;96.35;100994.03;4975123;28;20212;-82
2023/03/20 04:08:16;;;;;;;31.53;16.40;;;;;;;9.05;95.52;100998.56;4968432;28;20709;-82
2023/03/20 04:10:42;;;;;;;30.23;15.53;;;;;;;9.03;96.22;101008.41;4969598;28;20235;-82
2023/03/20 04:13:10;;;;;;;34.13;16.27;;;;;;;9.01;95.54;101009.41;4963772;28;20213;-82
2023/03/20 04:15:37;;;;;;;31.37;16.60;;;;;;;8.99;95.19;101005.97;4968672;28;20236;-82
2023/03/20 04:18:04;;;;;;;36.17;16.30;;;;;;;8.97;95.81;101005.19;4977568;28;20207;-81
2023/03/20 04:20:30;;;;;;;39.87;18.30;;;;;;;8.98;95.91;101013.09;4975746;28;20228;-81
2023/03/20 04:22:57;;;;;;;32.77;16.73;;;;;;;8.96;95.79;101009.63;4966966;28;20221;-81
2023/03/20 04:25:26;;;;;;;37.83;17.10;;;;;;;8.95;95.55;101013.25;4965381;28;20201;-81
2023/03/20 04:27:52;;;;;;;28.33;15.87;;;;;;;8.95;95.95;101015.06;4979870;28;20238;-81
2023/03/20 04:30:20;;;;;;;35.93;16.50;;;;;;;8.93;95.71;101015.13;4972058;28;20250;-81
2023/03/20 04:32:47;;;;;;;33.83;16.73;;;;;;;8.93;95.41;101008.97;4972708;28;20211;-81
2023/03/20 04:35:14;;;;;;;36.70;17.43;;;;;;;8.94;95.53;101006.22;4972118;28;20227;-81
2023/03/20 04:37:40;;;;;;;34.57;16.67;;;;;;;8.92;95.43;101008.09;4967011;28;20205;-81
2023/03/20 04:40:08;;;;;;;30.33;16.63;;;;;;;8.92;95.92;101002.78;4970029;28;20790;-80
2023/03/20 04:42:34;;;;;;;32.13;16.23;;;;;;;8.92;95.52;101005.44;4971384;28;20283;-80
2023/03/20 04:45:01;;;;;;;32.40;17.37;;;;;;;8.90;95.68;100994.03;4973008;28;20200;-81
2023/03/20 04:47:29;;;;;;;27.13;15.47;;;;;;;8.91;95.69;100995.75;4965459;28;20722;-80
2023/03/20 04:49:57;;;;;;;30.27;17.10;;;;;;;8.93;95.78;101001.00;4955813;28;20702;-83
2023/03/20 04:52:26;;;;;;;37.77;18.10;;;;;;;8.93;95.89;100995.69;4976087;28;20212;-84
2023/03/20 04:54:53;;;;;;;30.50;15.77;;;;;;;8.92;95.17;101001.94;4970576;28;20245;-82
2023/03/20 04:57:19;;;;;;;36.97;17.00;;;;;;;8.93;95.95;100998.34;4965745;28;20211;-82
2023/03/20 04:59:45;;;;;;;31.20;16.63;;;;;;;8.93;95.43;100993.03;4973020;28;20310;-82
2023/03/20 05:02:13;;;;;;;33.13;16.00;;;;;;;8.95;95.13;100989.34;4964567;28;20215;-82
2023/03/20 05:04:41;;;;;;;36.10;16.37;;;;;;;8.95;95.95;100983.19;4973311;28;20212;-82
2023/03/20 05:07:08;;;;;;;31.67;16.57;;;;;;;8.94;95.13;100982.31;4972690;28;20215;-82
2023/03/20 05:09:35;;;;;;;40.77;18.20;;;;;;;8.94;95.70;100979.66;4972167;28;20238;-82
2023/03/20 05:12:01;;;;;;;37.37;17.43;;;;;;;8.94;95.54;100979.66;4977534;28;20235;-83
2023/03/20 05:14:28;;;;;;;36.93;18.37;;;;;;;8.93;95.36;100977.94;4968749;28;20237;-82
2023/03/20 05:16:55;;;;;;;34.77;17.43;;;;;;;8.95;95.99;100977.88;4969745;28;20211;-82
2023/03/20 05:19:21;;;;;;;37.57;17.40;;;;;;;8.96;96.05;100972.44;4968116;28;20266;-82
2023/03/20 05:21:49;;;;;;;38.97;18.53;;;;;;;8.96;95.66;100974.25;4973615;28;20238;-83
2023/03/20 05:24:16;;;;;;;43.33;19.60;;;;;;;8.94;95.33;100971.69;4965989;28;20683;-83
2023/03/20 05:26:42;;;;;;;37.87;17.83;;;;;;;8.95;96.04;100970.75;4977692;28;20227;-82
2023/03/20 05:29:09;;;;;;;39.97;18.67;;;;;;;8.97;96.18;100970.66;4966371;28;20251;-82
2023/03/20 05:31:35;;;;;;;41.03;18.33;;;;;;;8.98;95.51;100970.56;4964427;28;20291;-82
2023/03/20 05:34:02;;;;;;;35.10;16.70;;;;;;;8.97;95.97;100966.19;4962545;28;20216;-82
2023/03/20 05:36:28;;;;;;;37.50;17.73;;;;;;;8.98;95.51;100962.59;4970236;28;20234;-82
2023/03/20 05:38:56;;;;;;;40.00;18.17;;;;;;;8.98;96.00;100970.56;4988304;28;20773;-82
2023/03/20 05:41:23;;;;;;;35.10;17.47;;;;;;;8.99;96.11;100974.94;4964866;28;20200;-82
2023/03/20 05:43:49;;;;;;;40.10;18.53;;;;;;;9.00;95.43;100975.81;4970507;28;20211;-82
2023/03/20 05:46:16;;;;;;;41.07;19.00;;;;;;;9.00;95.87;100971.38;4972584;28;20204;-82
2023/03/20 05:48:42;;;;;;;39.40;18.30;;;;;;;9.02;95.41;100984.56;4954456;28;20220;-82
2023/03/20 05:51:09;;;;;;;42.87;18.83;;;;;;;9.03;95.92;100980.97;4967601;28;20259;-82
2023/03/20 05:53:36;;;;;;;37.73;18.73;;;;;;;9.05;96.12;100977.31;4972713;28;20211;-82
2023/03/20 05:56:05;;;;;;;40.77;18.23;;;;;;;9.06;95.77;100980.81;4973443;28;20616;-82
2023/03/20 05:58:31;;;;;;;32.63;17.80;;;;;;;9.06;96.18;100978.16;4973063;28;20239;-82
2023/03/20 06:00:58;;;;;;;37.97;18.67;;;;;;;9.07;96.37;100987.00;4973556;28;20212;-82
2023/03/20 06:03:24;;;;;;;35.57;17.87;;;;;;;9.08;95.71;100986.91;4972937;28;20215;-82
2023/03/20 06:05:51;;;;;;;34.70;18.03;;;;;;;9.09;96.35;100990.44;4957104;28;20714;-82
2023/03/20 06:08:17;;;;;;;32.97;16.77;;;;;;;9.11;95.89;101004.50;4976557;28;20220;-82
2023/03/20 06:10:44;;;;;;;41.70;18.57;;;;;;;9.11;96.16;100992.09;4975835;28;20212;-82
2023/03/20 06:13:11;;;;;;;35.30;18.70;;;;;;;9.13;95.59;100992.00;4966445;28;20724;-82
2023/03/20 06:15:38;;;;;;;38.23;18.37;;;;;;;9.13;96.22;101000.84;4976700;28;20236;-82
2023/03/20 06:18:04;;;;;;;35.23;17.40;;;;;;;9.14;96.15;100994.56;4977946;28;20205;-83
2023/03/20 06:20:31;;;;;;;39.53;17.40;;;;;;;9.16;96.20;100994.47;4975319;28;20228;-82
2023/03/20 06:22:57;;;;;;;42.40;18.57;;;;;;;9.18;96.40;101000.56;4974011;28;20229;-82
2023/03/20 06:25:24;;;;;;;38.50;18.17;;;;;;;9.16;96.37;100995.34;4973964;28;20207;-82
2023/03/20 06:27:50;;;;;;;38.40;17.87;;;;;;;9.16;95.90;100991.81;4969349;28;20212;-81
2023/03/20 06:30:18;;;;;;;38.00;19.23;;;;;;;9.16;96.07;100997.13;4970141;28;20236;-82
2023/03/20 06:32:46;;;;;;;40.23;19.63;;;;;;;9.17;96.17;101002.38;4965517;28;20219;-82
2023/03/20 06:35:13;;;;;;;45.37;19.60;;;;;;;9.18;96.54;100996.13;4975797;28;20267;-83
2023/03/20 06:37:40;;;;;;;42.47;19.40;;;;;;;9.19;96.44;100996.97;4976911;28;20208;-83
2023/03/20 06:40:09;;;;;;;44.77;19.67;;;;;;;9.20;97.06;101004.00;4977241;28;20323;-84
2023/03/20 06:42:35;;;;;;;41.67;18.90;;;;;;;9.22;97.10;101012.78;4977316;28;20283;-83
2023/03/20 06:45:02;;;;;;;43.10;19.23;;;;;;;9.25;97.35;101012.63;4977651;28;20204;-83
2023/03/20 06:47:30;;;;;;;46.63;20.83;;;;;;;9.26;96.81;101014.34;4977584;28;20212;-83
2023/03/20 06:49:56;;;;;;;46.83;19.00;;;;;;;9.28;96.90;101015.97;4977598;28;20239;-83
2023/03/20 06:52:24;;;;;;;45.37;20.20;;;;;;;9.30;97.49;101019.41;4977375;28;20201;-83
2023/03/20 06:54:50;;;;;;;41.57;19.23;;;;;;;9.31;97.85;101026.47;4976930;28;20209;-83
2023/03/20 06:57:17;;;;;;;39.47;19.77;;;;;;;9.33;97.17;101031.66;4976819;28;20219;-83
2023/03/20 06:59:44;;;;;;;44.70;18.70;;;;;;;9.33;97.52;101031.66;4976866;28;20231;-83
2023/03/20 07:02:11;;;;;;;40.17;19.13;;;;;;;9.32;97.83;101033.47;4977270;28;20264;-83
2023/03/20 07:04:39;;;;;;;39.93;18.53;;;;;;;9.32;97.67;101027.28;4977424;28;20232;-83
2023/03/20 07:07:06;;;;;;;40.10;18.67;;;;;;;9.31;97.36;101023.81;4977304;28;20212;-83
2023/03/20 07:09:32;;;;;;;41.63;19.90;;;;;;;9.31;97.89;101028.25;4977045;28;20224;-83
2023/03/20 07:11:59;;;;;;;48.70;19.17;;;;;;;9.32;97.52;101027.28;4977552;28;20666;-83
2023/03/20 07:14:26;;;;;;;42.57;19.10;;;;;;;9.31;97.22;101031.78;4976733;28;20212;-83
2023/03/20 07:16:52;;;;;;;39.83;18.77;;;;;;;9.28;97.75;101031.06;4976548;28;20224;-83
2023/03/20 07:19:19;;;;;;;42.77;20.00;;;;;;;9.27;97.22;101035.53;4975873;28;20231;-83
2023/03/20 07:21:47;;;;;;;41.83;20.10;;;;;;;9.27;97.29;101045.28;4976476;28;20212;-83
2023/03/20 07:24:14;;;;;;;41.53;19.63;;;;;;;9.25;97.59;101048.03;4975223;28;20212;-83
2023/03/20 07:26:40;;;;;;;48.53;20.37;;;;;;;9.26;96.96;101051.53;4976730;28;20588;-83
2023/03/20 07:29:07;;;;;;;42.80;19.80;;;;;;;9.26;97.11;101051.53;4975884;28;20756;-83
2023/03/20 07:31:34;;;;;;;38.53;19.37;;;;;;;9.27;97.20;101058.59;4975512;28;20215;-83
2023/03/20 07:34:00;;;;;;;42.07;20.70;;;;;;;9.26;96.92;101052.41;4975233;28;20279;-83
2023/03/20 07:36:27;;;;;;;45.63;21.70;;;;;;;9.28;96.80;101047.00;4975607;28;20784;-83
2023/03/20 07:38:55;;;;;;;41.80;20.13;;;;;;;9.31;96.61;101034.44;4974786;28;20240;-83
2023/03/20 07:41:21;;;;;;;45.30;20.70;;;;;;;9.34;96.86;101044.03;4975358;28;20208;-83
2023/03/20 07:43:48;;;;;;;36.40;19.70;;;;;;;9.36;96.60;101045.66;4975248;28;20215;-83
2023/03/20 07:46:14;;;;;;;39.60;18.63;;;;;;;9.39;96.76;101047.31;4975151;28;20207;-83
2023/03/20 07:48:41;;;;;;;37.67;17.77;;;;;;;9.40;95.91;101055.19;4976094;28;20236;-83
2023/03/20 07:51:07;;;;;;;33.43;18.43;;;;;;;9.42;95.76;101044.50;4968712;28;20220;-83
2023/03/20 07:53:34;;;;;;;32.80;18.37;;;;;;;9.40;95.53;101049.88;4971195;28;20211;-83
2023/03/20 07:56:02;;;;;;;29.73;16.80;;;;;;;9.42;94.97;101055.13;4959001;28;20237;-84
2023/03/20 07:58:28;;;;;;;30.47;16.50;;;;;;;9.44;94.48;101063.03;4970143;28;20662;-83
2023/03/20 08:00:56;;;;;;;30.73;16.70;;;;;;;9.46;94.19;101062.00;4970002;28;20678;-83
2023/03/20 08:03:23;;;;;;;30.27;17.17;;;;;;;9.45;93.89;101060.28;4969972;28;20209;-83
2023/03/20 08:05:49;;;;;;;28.17;17.23;;;;;;;9.45;93.76;101059.44;4965791;28;20215;-83
2023/03/20 08:08:16;;;;;;;31.50;16.97;;;;;;;9.42;93.04;101060.44;4973651;28;20215;-83
2023/03/20 08:10:42;;;;;;;33.50;17.63;;;;;;;9.38;92.71;101053.56;4965561;28;20204;-83
2023/03/20 08:13:10;;;;;;;33.43;17.90;;;;;;;9.39;91.97;101060.59;4973944;28;20216;-83
2023/03/20 08:15:37;;;;;;;34.70;18.90;;;;;;;9.37;90.95;101065.13;4973755;28;20228;-83
2023/03/20 08:18:04;;;;;;;30.23;16.97;;;;;;;9.37;90.72;101067.78;4974311;28;20215;-83
2023/03/20 08:20:30;;;;;;;31.20;17.23;;;;;;;9.40;90.91;101064.97;4957628;28;20224;-83
2023/03/20 08:22:57;;;;;;;28.50;16.43;;;;;;;9.43;90.00;101062.16;4966320;28;20240;-83
2023/03/20 08:25:23;;;;;;;31.07;17.73;;;;;;;9.48;90.19;101069.91;4967138;28;20198;-83
2023/03/20 08:27:50;;;;;;;30.63;17.77;;;;;;;9.54;89.84;101074.88;4971526;28;20323;-83
2023/03/20 08:30:18;;;;;;;30.70;17.63;;;;;;;9.57;89.67;101070.28;4973836;28;20224;-82
2023/03/20 08:32:44;;;;;;;33.27;17.83;;;;;;;9.61;89.45;101071.84;4973889;28;20204;-83
2023/03/20 08:35:11;;;;;;;31.33;18.40;;;;;;;9.65;88.77;101068.09;4972459;28;20197;-83
2023/03/20 08:37:37;;;;;;;34.00;17.20;;;;;;;9.69;88.36;101074.94;4974948;28;20208;-84
2023/03/20 08:40:05;;;;;;;31.97;18.10;;;;;;;9.69;87.86;101066.97;4971535;28;20316;-83
2023/03/20 08:42:32;;;;;;;36.83;19.50;;;;;;;9.68;87.27;101061.72;4993033;28;20296;-83
2023/03/20 08:44:58;;;;;;;34.87;19.30;;;;;;;9.66;86.95;101069.81;4993326;28;20218;-83
2023/03/20 08:47:26;;;;;;;34.07;18.40;;;;;;;9.69;86.88;101068.75;4992450;28;20211;-83
2023/03/20 08:49:52;;;;;;;32.80;18.13;;;;;;;9.69;86.67;101066.09;4992662;28;20227;-83
2023/03/20 08:52:19;;;;;;;37.47;19.77;;;;;;;9.70;86.26;101062.50;4986606;28;20211;-83
2023/03/20 08:54:45;;;;;;;39.47;20.23;;;;;;;9.71;86.21;101061.56;4973894;28;20220;-83
2023/03/20 08:57:12;;;;;;;36.10;19.37;;;;;;;9.73;86.05;101067.66;4973778;28;20784;-83
2023/03/20 08:59:38;;;;;;;34.10;19.57;;;;;;;9.74;85.76;101078.22;4972984;28;20232;-83
2023/03/20 09:02:05;;;;;;;37.60;20.17;;;;;;;9.77;85.57;101084.31;4972805;28;20607;-83
2023/03/20 09:04:33;;;;;;;35.37;18.23;;;;;;;9.78;85.56;101078.91;4972675;28;20216;-83
2023/03/20 09:07:01;;;;;;;41.90;18.60;;;;;;;9.79;85.30;101080.66;4972963;28;20207;-83
2023/03/20 09:09:29;;;;;;;32.07;18.07;;;;;;;9.79;84.87;101082.44;4972404;28;20228;-84
2023/03/20 09:11:55;;;;;;;30.80;17.00;;;;;;;9.81;84.89;101080.56;4974027;28;20204;-84
2023/03/20 09:14:22;;;;;;;32.70;17.20;;;;;;;9.83;84.78;101079.53;4973852;28;20212;-81
2023/03/20 09:16:49;;;;;;;33.83;17.03;;;;;;;9.88;84.34;101079.28;4962550;28;20229;-81
2023/03/20 09:19:15;;;;;;;25.27;15.70;;;;;;;9.90;84.35;101086.25;4967407;28;20232;-84
2023/03/20 09:21:43;;;;;;;29.27;15.87;;;;;;;9.94;83.75;101081.63;4973687;28;20207;-82
2023/03/20 09:24:10;;;;;;;28.17;16.43;;;;;;;9.93;83.25;101093.19;4974586;28;20215;-81
2023/03/20 09:26:37;;;;;;;33.90;18.00;;;;;;;9.92;83.61;101092.34;4972440;28;20566;-81
2023/03/20 09:29:04;;;;;;;27.47;17.30;;;;;;;9.92;82.91;101080.84;4972901;28;20229;-82
2023/03/20 09:31:30;;;;;;;32.80;17.80;;;;;;;9.93;83.33;101090.53;4972997;28;20212;-83
2023/03/20 09:33:57;;;;;;;40.60;20.73;;;;;;;9.93;83.31;101093.19;4957247;28;20721;-82
2023/03/20 09:36:23;;;;;;;39.17;20.07;;;;;;;9.95;83.57;101097.50;4967815;28;20221;-82
2023/03/20 09:38:51;;;;;;;34.30;19.73;;;;;;;9.97;83.61;101092.09;4954980;29;20600;-82
2023/03/20 09:41:21;;;;;;;37.23;20.03;;;;;;;10.00;83.20;101099.94;4955196;29;20211;-82
2023/03/20 09:44:00;;;;;;;33.00;19.57;;;;;;;9.99;83.28;101099.06;4972217;28;20215;-83
2023/03/20 09:46:48;;;;;;;33.97;19.50;;;;;;;9.98;82.88;101093.81;4975241;28;20192;-82
2023/03/20 09:49:24;;;;;;;34.57;19.47;;;;;;;9.96;82.60;101099.22;4978096;28;20255;-82
2023/03/20 09:51:55;;;;;;;30.97;18.60;;;;;;;9.96;82.62;101099.22;4978908;28;20204;-83
2023/03/20 09:54:28;;;;;;;38.00;20.20;;;;;;;9.96;82.88;101091.25;4979835;28;20193;-82
2023/03/20 09:56:57;;;;;;;38.80;21.40;;;;;;;9.96;82.53;101099.22;4979676;28;20217;-82
2023/03/20 09:59:26;;;;;;;41.53;23.50;;;;;;;9.97;82.52;101102.75;4980260;28;20231;-82
2023/03/20 10:01:55;;;;;;;44.83;24.70;;;;;;;9.95;82.41;101097.50;4980291;28;20600;-83
2023/03/20 10:04:23;;;;;;;44.57;25.27;;;;;;;9.95;82.92;101107.28;4980125;28;20675;-82
2023/03/20 10:06:50;;;;;;;42.33;23.77;;;;;;;9.92;82.34;101097.66;4980125;28;20205;-82
2023/03/20 10:09:20;;;;;;;40.07;24.40;;;;;;;9.91;82.28;101103.06;4979863;28;20247;-82
2023/03/20 10:12:05;;;;;;;44.40;25.87;;;;;;;9.90;82.75;101104.00;4979113;28;20701;-83
2023/03/20 10:14:43;;;;;;;35.30;22.30;;;;;;;9.89;82.52;101103.13;4979508;28;20632;-83
2023/03/20 10:17:25;;;;;;;36.60;23.57;;;;;;;9.84;82.36;101099.03;4978538;28;20216;-83
2023/03/20 10:19:57;;;;;;;35.10;22.70;;;;;;;9.82;81.92;101104.44;4978544;28;20236;-82
2023/03/20 10:22:28;;;;;;;32.00;20.23;;;;;;;9.87;82.02;101101.50;4978819;28;20685;-83
2023/03/20 10:24:59;;;;;;;28.77;20.10;;;;;;;9.89;81.87;101104.94;4978964;28;20287;-82
2023/03/20 10:27:33;;;;;;;29.77;20.10;;;;;;;9.93;81.65;101111.81;4979167;28;20666;-82
2023/03/20 10:30:15;;;;;;;26.00;18.40;;;;;;;9.96;81.71;101109.88;4978458;28;20232;-82
2023/03/20 10:32:48;;;;;;;29.47;18.70;;;;;;;10.00;81.51;101110.56;4979219;28;20535;-82
2023/03/20 10:35:23;;;;;;;28.00;18.03;;;;;;;10.06;81.46;101107.56;4978977;28;20589;-82
2023/03/20 10:38:04;;;;;;;24.07;16.70;;;;;;;10.10;80.90;101103.78;4978793;28;20212;-82
2023/03/20 10:40:34;;;;;;;24.90;17.03;;;;;;;10.09;80.29;101100.28;4978777;28;20319;-82
2023/03/20 10:43:06;;;;;;;22.80;17.17;;;;;;;10.12;80.28;101101.06;4978858;28;20203;-82
2023/03/20 10:45:40;;;;;;;23.17;16.70;;;;;;;10.13;79.64;101097.44;4978954;28;20199;-83
2023/03/20 10:48:15;;;;;;;18.37;15.43;;;;;;;10.16;79.11;101105.28;4978687;28;20192;-82
2023/03/20 10:50:46;;;;;;;19.67;15.43;;;;;;;10.17;78.49;101102.53;4978939;28;20207;-82
2023/03/20 10:53:25;;;;;;;24.87;15.90;;;;;;;10.17;78.17;101105.19;4978445;28;20575;-82
2023/03/20 10:55:57;;;;;;;20.50;16.00;;;;;;;10.21;77.78;101101.44;4978798;28;20609;-82
2023/03/20 10:58:28;;;;;;;22.00;16.40;;;;;;;10.25;77.56;101107.44;4977593;28;20279;-82
2023/03/20 11:00:56;;;;;;;21.10;16.10;;;;;;;10.28;77.58;101101.97;4978651;28;20203;-82
2023/03/20 11:03:24;;;;;;;21.10;16.63;;;;;;;10.34;77.27;101097.19;4978884;28;20208;-82
2023/03/20 11:05:56;;;;;;;21.07;16.20;;;;;;;10.42;76.97;101092.25;4978174;28;20208;-82
2023/03/20 11:08:24;;;;;;;18.93;16.43;;;;;;;10.49;76.92;101086.59;4979045;28;20199;-83
2023/03/20 11:10:59;;;;;;;18.00;15.13;;;;;;;10.55;76.42;101086.28;4979167;28;20223;-83
2023/03/20 11:13:31;;;;;;;15.70;14.03;;;;;;;10.53;74.60;101082.84;4979037;28;20188;-83
2023/03/20 11:16:09;;;;;;;17.47;15.50;;;;;;;10.57;74.43;101090.53;4978754;28;20208;-83
2023/03/20 11:18:36;;;;;;;18.47;14.57;;;;;;;10.61;74.37;101081.44;4978508;28;20266;-82
2023/03/20 11:21:03;;;;;;;17.03;14.47;;;;;;;10.65;74.27;101080.34;4976513;28;20215;-83
2023/03/20 11:23:33;;;;;;;18.07;14.40;;;;;;;10.72;73.69;101078.19;4977377;28;20219;-83
2023/03/20 11:26:02;;;;;;;14.90;13.40;;;;;;;10.78;73.03;101078.69;4976661;28;20772;-82